Time;durP1;ratioP1;P1;durP2;ratioP2;P2;SDS_P1;SDS_P2;PMS_P1;PMS_P2;Temp;Humidity;BMP_temperature;BMP_pressure;BME280_temperature;BME280_humidity;BME280_pressure;Samples;Min_cycle;Max_cycle;Signal;HPM_P1;HPM_P2
2022/04/04 00:01:22;;;;;;;9.70;3.97;;;-0.70;55.90;;;;;;5075616;28;20024;-75
2022/04/04 00:03:48;;;;;;;5.78;3.63;;;-0.70;56.10;;;;;;5075445;28;20020;-76
2022/04/04 00:06:14;;;;;;;7.95;4.00;;;-0.70;56.30;;;;;;5083834;28;20043;-77
2022/04/04 00:08:40;;;;;;;5.80;4.85;;;-0.80;56.40;;;;;;5077498;28;20028;-76
2022/04/04 00:11:06;;;;;;;7.03;3.95;;;-0.80;56.70;;;;;;5096453;28;20051;-76
2022/04/04 00:13:32;;;;;;;7.40;4.43;;;-0.80;56.90;;;;;;5095786;28;20016;-78
2022/04/04 00:15:58;;;;;;;4.40;3.42;;;-0.90;57.40;;;;;;5095775;28;20024;-76
2022/04/04 00:18:24;;;;;;;8.52;4.00;;;-0.90;57.50;;;;;;5095627;28;20162;-76
2022/04/04 00:20:50;;;;;;;7.85;4.70;;;-0.90;57.90;;;;;;5095457;28;20409;-78
2022/04/04 00:23:16;;;;;;;5.90;4.25;;;-0.90;58.20;;;;;;5094575;28;20048;-77
2022/04/04 00:25:45;;;;;;;8.30;4.10;;;-0.90;58.60;;;;;;5095312;28;20491;-76
2022/04/04 00:28:12;;;;;;;12.10;5.20;;;-0.90;59.20;;;;;;5095672;28;20434;-77
2022/04/04 00:30:38;;;;;;;9.88;4.72;;;-1.00;59.60;;;;;;5095684;28;20024;-75
2022/04/04 00:33:04;;;;;;;11.55;4.88;;;-0.90;60.00;;;;;;5092762;28;20137;-77
2022/04/04 00:35:30;;;;;;;7.55;4.60;;;-1.00;60.40;;;;;;5093402;28;20056;-77
2022/04/04 00:38:01;;;;;;;7.97;4.43;;;-1.00;60.90;;;;;;5095248;28;20024;-77
2022/04/04 00:40:27;;;;;;;8.93;4.32;;;-1.00;61.30;;;;;;5075837;28;20473;-77
2022/04/04 00:42:53;;;;;;;7.95;4.97;;;-1.10;61.60;;;;;;5076958;28;20066;-79
2022/04/04 00:45:19;;;;;;;6.40;4.47;;;-1.10;61.80;;;;;;5094925;28;20492;-79
2022/04/04 00:47:45;;;;;;;7.28;4.93;;;-1.20;62.10;;;;;;5076769;28;20027;-77
2022/04/04 00:50:13;;;;;;;5.43;3.75;;;-1.30;62.30;;;;;;5095473;28;20054;-77
2022/04/04 00:52:39;;;;;;;7.38;4.68;;;-1.30;62.60;;;;;;5099093;28;20024;-77
2022/04/04 00:55:08;;;;;;;8.93;6.55;;;-1.30;62.70;;;;;;5098022;28;20032;-77
2022/04/04 00:57:36;;;;;;;6.82;4.55;;;-1.40;62.90;;;;;;5095061;28;20052;-77
2022/04/04 01:00:04;;;;;;;11.27;5.63;;;-1.40;62.90;;;;;;5094502;28;20024;-79
2022/04/04 01:02:30;;;;;;;7.65;4.03;;;-1.40;62.90;;;;;;5094025;28;20024;-78
2022/04/04 01:04:56;;;;;;;6.72;5.30;;;-1.40;62.90;;;;;;5094675;28;20488;-76
2022/04/04 01:07:21;;;;;;;9.10;4.60;;;-1.40;63.30;;;;;;5094501;28;20020;-77
2022/04/04 01:09:48;;;;;;;6.95;4.50;;;-1.40;63.30;;;;;;5094536;28;20489;-78
2022/04/04 01:12:14;;;;;;;6.63;4.03;;;-1.40;63.00;;;;;;5093312;28;20051;-77
2022/04/04 01:14:41;;;;;;;4.72;3.60;;;-1.40;63.00;;;;;;5076127;28;20024;-77
2022/04/04 01:17:07;;;;;;;;;;;-1.40;63.30;;;;;;5094839;28;20028;-77
2022/04/04 01:19:34;;;;;;;5.63;4.25;;;-1.50;63.20;;;;;;5094439;28;19904;-79
2022/04/04 01:22:00;;;;;;;7.40;4.68;;;-1.50;63.00;;;;;;5094511;28;20028;-76
2022/04/04 01:24:26;;;;;;;4.20;3.60;;;-1.50;63.10;;;;;;5076725;28;20074;-77
2022/04/04 01:26:53;;;;;;;7.53;4.40;;;-1.50;63.30;;;;;;5094413;28;20035;-77
2022/04/04 01:29:23;;;;;;;7.35;4.80;;;-1.50;63.20;;;;;;5093350;28;20024;-77
2022/04/04 01:31:50;;;;;;;6.30;4.57;;;-1.50;63.00;;;;;;5094036;28;20075;-78
2022/04/04 01:34:20;;;;;;;6.80;4.40;;;-1.50;62.90;;;;;;5093770;28;20388;-78
2022/04/04 01:36:46;;;;;;;8.70;4.68;;;-1.50;63.30;;;;;;5093975;28;20047;-77
2022/04/04 01:39:12;;;;;;;10.20;4.85;;;-1.50;62.20;;;;;;5093844;28;20477;-76
2022/04/04 01:41:38;;;;;;;5.75;4.60;;;-1.50;62.00;;;;;;5092767;28;20028;-77
2022/04/04 01:44:04;;;;;;;6.00;4.80;;;-1.50;62.80;;;;;;5094853;28;20016;-78
2022/04/04 01:46:30;;;;;;;6.25;4.45;;;-1.50;62.30;;;;;;5112806;28;20031;-78
2022/04/04 01:49:01;;;;;;;5.53;3.78;;;-1.50;62.60;;;;;;5114214;28;20035;-78
2022/04/04 01:51:28;;;;;;;5.90;3.80;;;-1.50;62.60;;;;;;5114231;28;20027;-77
2022/04/04 01:53:55;;;;;;;6.63;4.60;;;-1.50;62.50;;;;;;5079928;28;20028;-77
2022/04/04 01:56:22;;;;;;;8.13;4.88;;;-1.60;62.50;;;;;;5073406;28;20623;-76
2022/04/04 01:58:47;;;;;;;7.32;4.22;;;-1.60;62.60;;;;;;5073393;28;20034;-78
2022/04/04 02:01:16;;;;;;;6.72;4.63;;;-1.60;62.40;;;;;;5070736;28;20127;-78
2022/04/04 02:03:44;;;;;;;9.18;4.78;;;-1.60;62.40;;;;;;5093307;28;20021;-78
2022/04/04 02:06:09;;;;;;;7.57;4.70;;;-1.50;62.20;;;;;;5093610;28;20367;-77
2022/04/04 02:08:35;;;;;;;7.82;4.40;;;-1.50;62.20;;;;;;5093871;28;20050;-77
2022/04/04 02:11:02;;;;;;;6.28;4.30;;;-1.50;62.20;;;;;;5093381;28;20048;-77
2022/04/04 02:13:28;;;;;;;5.35;4.25;;;-1.50;62.20;;;;;;5093404;28;20496;-75
2022/04/04 02:15:58;;;;;;;9.05;5.07;;;-1.50;62.20;;;;;;5092364;28;20506;-76
2022/04/04 02:18:24;;;;;;;5.47;4.00;;;-1.50;62.20;;;;;;5075928;28;20028;-77
2022/04/04 02:20:50;;;;;;;6.00;3.90;;;-1.50;62.20;;;;;;5094067;28;20467;-77
2022/04/04 02:23:18;;;;;;;8.75;5.70;;;-1.60;62.20;;;;;;5093590;28;20024;-79
2022/04/04 02:25:48;;;;;;;7.28;4.82;;;-1.50;62.40;;;;;;5093823;28;20397;-76
2022/04/04 02:28:15;;;;;;;7.60;5.30;;;-1.60;62.30;;;;;;5093491;28;20020;-78
2022/04/04 02:30:42;;;;;;;5.68;4.38;;;-1.60;62.50;;;;;;5093191;28;20020;-77
2022/04/04 02:33:08;;;;;;;7.63;4.82;;;-1.60;62.50;;;;;;5092381;28;20020;-78
2022/04/04 02:35:35;;;;;;;7.00;5.25;;;-1.60;62.60;;;;;;5093087;28;20065;-76
2022/04/04 02:38:02;;;;;;;11.13;5.55;;;-1.60;63.00;;;;;;5093784;28;20020;-77
2022/04/04 02:40:28;;;;;;;7.35;4.43;;;-1.70;63.60;;;;;;5093690;28;20027;-76
2022/04/04 02:42:55;;;;;;;8.05;4.72;;;-1.60;64.00;;;;;;5092819;28;20079;-76
2022/04/04 02:45:21;;;;;;;7.85;4.93;;;-1.70;64.30;;;;;;5093034;28;20398;-77
2022/04/04 02:47:46;;;;;;;8.73;6.05;;;-1.70;64.50;;;;;;5092672;28;20054;-76
2022/04/04 02:50:13;;;;;;;6.30;4.75;;;-1.80;64.30;;;;;;5091974;28;20047;-76
2022/04/04 02:52:39;;;;;;;8.77;4.88;;;-1.80;64.50;;;;;;5074825;28;20024;-77
2022/04/04 02:57:51;;;;;;;7.07;5.13;;;-1.90;65.30;;;;;;5092988;28;20032;-77
2022/04/04 03:00:19;;;;;;;7.57;4.65;;;-1.90;65.30;;;;;;5074682;28;20024;-77
2022/04/04 03:02:46;;;;;;;10.75;4.78;;;-1.90;65.40;;;;;;5071108;28;20024;-76
2022/04/04 03:05:12;;;;;;;9.20;5.15;;;-1.90;65.80;;;;;;5072229;28;20040;-77
2022/04/04 03:07:37;;;;;;;12.70;5.30;;;-2.00;65.90;;;;;;5083677;28;20343;-76
2022/04/04 03:10:04;;;;;;;7.50;4.88;;;-2.00;66.00;;;;;;5074803;28;20027;-77
2022/04/04 03:12:29;;;;;;;7.90;5.18;;;-2.00;66.00;;;;;;5092466;28;20125;-76
2022/04/04 03:14:55;;;;;;;7.13;4.65;;;-2.00;66.20;;;;;;5092561;28;20024;-76
2022/04/04 03:17:21;;;;;;;7.10;5.13;;;-2.00;66.40;;;;;;5092303;28;20054;-77
2022/04/04 03:19:47;;;;;;;9.63;5.30;;;-2.00;66.50;;;;;;5073908;28;20111;-76
2022/04/04 03:22:14;;;;;;;8.60;5.20;;;-2.10;66.50;;;;;;5092411;28;20488;-76
2022/04/04 03:24:39;;;;;;;5.53;4.32;;;-2.00;66.60;;;;;;5091218;28;20177;-77
2022/04/04 03:27:05;;;;;;;12.80;5.30;;;-2.10;66.60;;;;;;5093631;28;20068;-76
2022/04/04 03:29:31;;;;;;;7.88;4.55;;;-2.00;66.70;;;;;;5094298;28;20335;-76
2022/04/04 03:31:58;;;;;;;8.18;5.05;;;-2.00;66.70;;;;;;5092688;28;20031;-77
2022/04/04 03:34:25;;;;;;;11.43;5.97;;;-2.00;66.70;;;;;;5074073;28;20028;-75
2022/04/04 03:36:51;;;;;;;8.50;5.67;;;-2.00;66.80;;;;;;5092017;28;20031;-76
2022/04/04 03:39:26;;;;;;;12.30;6.07;;;-2.00;66.80;;;;;;5091248;28;20280;-77
2022/04/04 03:41:54;;;;;;;6.45;4.43;;;-2.00;66.80;;;;;;5091934;28;20025;-75
2022/04/04 03:44:19;;;;;;;;;;;-2.00;66.80;;;;;;5092543;28;20158;-77
2022/04/04 03:46:46;;;;;;;7.15;4.88;;;-2.00;66.70;;;;;;5090800;28;19995;-77
2022/04/04 03:49:12;;;;;;;9.18;5.82;;;-2.00;66.60;;;;;;5092062;28;20028;-76
2022/04/04 03:51:37;;;;;;;13.75;5.88;;;-2.00;66.70;;;;;;5091967;28;20034;-75
2022/04/04 03:54:03;;;;;;;6.72;4.97;;;-2.00;66.90;;;;;;5092325;28;20032;-76
2022/04/04 03:56:29;;;;;;;8.45;5.30;;;-1.90;67.10;;;;;;5094711;28;20078;-76
2022/04/04 03:58:55;;;;;;;9.65;4.95;;;-1.80;67.00;;;;;;5093092;28;20118;-77
2022/04/04 04:01:22;;;;;;;7.22;5.90;;;-1.80;66.90;;;;;;5091531;28;20024;-76
2022/04/04 04:03:48;;;;;;;9.05;5.97;;;-1.70;66.90;;;;;;5072642;28;20032;-74
2022/04/04 04:06:16;;;;;;;7.13;4.65;;;-1.70;66.60;;;;;;5091977;28;20032;-75
2022/04/04 04:08:46;;;;;;;11.15;6.50;;;-1.60;66.60;;;;;;5073910;28;20028;-74
2022/04/04 04:11:14;;;;;;;9.00;5.68;;;-1.60;66.50;;;;;;5091636;28;20040;-75
2022/04/04 04:13:41;;;;;;;;;;;-1.50;66.50;;;;;;5090937;28;20024;-74
2022/04/04 04:16:09;;;;;;;10.43;5.82;;;-1.50;66.30;;;;;;5073445;28;20344;-76
2022/04/04 04:18:39;;;;;;;8.88;5.63;;;-1.50;66.10;;;;;;5091473;28;20039;-75
2022/04/04 04:21:06;;;;;;;10.00;5.30;;;-1.40;66.20;;;;;;5090389;28;20487;-74
2022/04/04 04:23:33;;;;;;;7.82;5.97;;;-1.40;66.20;;;;;;5091711;28;20020;-76
2022/04/04 04:25:59;;;;;;;11.30;6.00;;;-1.30;66.20;;;;;;5091403;28;20032;-75
2022/04/04 04:28:24;;;;;;;10.68;6.68;;;-1.20;65.90;;;;;;5091676;28;20381;-76
2022/04/04 04:30:50;;;;;;;10.48;6.28;;;-1.10;65.80;;;;;;5091572;28;20039;-76
2022/04/04 04:33:16;;;;;;;12.27;5.90;;;-1.00;65.80;;;;;;5091421;28;20111;-77
2022/04/04 04:35:42;;;;;;;10.43;5.60;;;-0.80;65.20;;;;;;5073996;28;20031;-76
2022/04/04 04:38:08;;;;;;;12.23;6.63;;;-0.70;65.00;;;;;;5095139;28;20021;-75
2022/04/04 04:40:34;;;;;;;7.63;5.50;;;-0.70;64.70;;;;;;5095175;28;20031;-75
2022/04/04 04:43:00;;;;;;;14.25;5.95;;;-0.70;64.20;;;;;;5095171;28;20334;-75
2022/04/04 04:45:27;;;;;;;9.95;5.95;;;-0.70;64.10;;;;;;5094475;28;20040;-74
2022/04/04 04:47:52;;;;;;;6.88;5.53;;;-0.60;64.50;;;;;;5094825;28;20031;-77
2022/04/04 04:50:20;;;;;;;8.88;6.18;;;-0.60;64.30;;;;;;5095241;28;20024;-76
2022/04/04 04:52:47;;;;;;;13.55;6.30;;;-0.40;64.10;;;;;;5093934;28;20485;-79
2022/04/04 04:55:14;;;;;;;12.45;6.88;;;-0.30;63.40;;;;;;5094787;28;20123;-75
2022/04/04 04:57:40;;;;;;;11.40;5.80;;;-0.20;62.80;;;;;;5094696;28;20016;-76
2022/04/04 05:00:10;;;;;;;12.32;6.88;;;-0.20;62.50;;;;;;5094214;28;20451;-75
2022/04/04 05:02:36;;;;;;;8.82;6.32;;;-0.20;62.40;;;;;;5094539;28;20030;-75
2022/04/04 05:05:04;;;;;;;11.00;6.68;;;-0.30;62.20;;;;;;5094608;28;20032;-76
2022/04/04 05:07:30;;;;;;;10.48;7.13;;;-0.30;62.30;;;;;;5094638;28;20081;-73
2022/04/04 05:09:56;;;;;;;9.45;6.30;;;-0.20;62.70;;;;;;5093280;28;20114;-75
2022/04/04 05:12:22;;;;;;;9.45;7.32;;;-0.10;63.00;;;;;;5094086;28;20473;-74
2022/04/04 05:14:48;;;;;;;12.15;6.88;;;-0.10;62.40;;;;;;5094154;28;20017;-75
2022/04/04 05:17:15;;;;;;;8.55;5.95;;;-0.10;62.00;;;;;;5094733;28;20020;-75
2022/04/04 05:19:41;;;;;;;10.37;7.63;;;-0.20;61.80;;;;;;5076288;28;20115;-74
2022/04/04 05:22:07;;;;;;;11.73;6.95;;;-0.20;62.00;;;;;;5094043;28;20492;-76
2022/04/04 05:24:34;;;;;;;9.23;7.03;;;-0.20;62.10;;;;;;5094106;28;20073;-76
2022/04/04 05:27:00;;;;;;;9.35;7.32;;;-0.20;62.10;;;;;;5093177;28;20032;-76
2022/04/04 05:29:28;;;;;;;11.20;6.22;;;-0.30;62.10;;;;;;5094027;28;20036;-75
2022/04/04 05:31:56;;;;;;;10.98;7.30;;;-0.30;62.00;;;;;;5093936;28;20031;-76
2022/04/04 05:34:25;;;;;;;10.85;7.32;;;-0.30;61.80;;;;;;5095766;28;20024;-72
2022/04/04 05:36:51;;;;;;;10.95;6.65;;;-0.30;61.90;;;;;;5094496;28;20020;-75
2022/04/04 05:39:17;;;;;;;10.75;7.25;;;-0.30;62.10;;;;;;5093805;28;20553;-74
2022/04/04 05:41:42;;;;;;;11.65;8.05;;;-0.30;61.90;;;;;;5092701;28;20101;-77
2022/04/04 05:44:08;;;;;;;7.28;6.07;;;-0.20;61.60;;;;;;5093484;28;20049;-75
2022/04/04 05:46:34;;;;;;;11.55;6.57;;;-0.10;61.20;;;;;;5093093;28;20032;-76
2022/04/04 05:49:00;;;;;;;11.13;7.38;;;0.00;60.80;;;;;;5093704;28;20512;-76
2022/04/04 05:51:28;;;;;;;14.18;6.63;;;0.10;60.80;;;;;;5093600;28;20147;-78
2022/04/04 05:53:54;;;;;;;10.40;6.95;;;0.20;60.50;;;;;;5094612;28;20083;-76
2022/04/04 05:56:21;;;;;;;8.18;6.30;;;0.30;60.30;;;;;;5076147;28;20026;-76
2022/04/04 05:58:50;;;;;;;11.80;6.17;;;0.40;59.40;;;;;;5092388;28;20039;-76
2022/04/04 06:01:16;;;;;;;13.43;7.22;;;0.40;59.10;;;;;;5093079;28;20288;-76
2022/04/04 06:03:42;;;;;;;9.60;7.13;;;0.60;59.20;;;;;;5075444;28;20061;-76
2022/04/04 06:06:08;;;;;;;12.00;6.90;;;0.70;58.80;;;;;;5075828;28;20036;-77
2022/04/04 06:08:34;;;;;;;12.00;7.22;;;1.00;58.80;;;;;;5094014;28;20077;-76
2022/04/04 06:11:00;;;;;;;11.20;7.53;;;1.90;58.00;;;;;;5092991;28;20024;-76
2022/04/04 06:13:26;;;;;;;10.05;6.78;;;3.40;55.80;;;;;;5092072;28;20536;-75
2022/04/04 06:15:52;;;;;;;12.57;7.93;;;4.90;52.10;;;;;;5092318;28;20024;-76
2022/04/04 06:18:18;;;;;;;12.05;6.95;;;6.00;49.60;;;;;;5075127;28;20024;-76
2022/04/04 06:20:44;;;;;;;10.50;6.85;;;6.80;47.30;;;;;;5093233;28;20427;-76
2022/04/04 06:23:11;;;;;;;11.88;7.85;;;7.30;45.80;;;;;;5093150;28;20031;-75
2022/04/04 06:25:38;;;;;;;15.02;6.85;;;7.80;43.80;;;;;;5093055;28;20504;-76
2022/04/04 06:28:05;;;;;;;10.48;7.07;;;8.10;43.20;;;;;;5092562;28;20412;-75
2022/04/04 06:30:31;;;;;;;13.60;7.63;;;8.50;42.20;;;;;;5092088;28;20024;-74
2022/04/04 06:32:57;;;;;;;9.85;7.40;;;8.90;40.90;;;;;;5091012;28;20435;-78
2022/04/04 06:35:26;;;;;;;9.63;7.63;;;9.10;40.50;;;;;;5091693;28;20516;-76
2022/04/04 06:37:52;;;;;;;10.88;7.35;;;8.90;39.60;;;;;;5091182;28;20081;-79
2022/04/04 06:40:20;;;;;;;12.23;7.35;;;8.10;40.00;;;;;;5092477;28;20028;-80
2022/04/04 06:42:46;;;;;;;12.60;7.05;;;7.30;40.60;;;;;;5093200;28;20024;-77
2022/04/04 06:45:13;;;;;;;10.20;7.47;;;6.60;41.00;;;;;;5093367;28;20492;-77
2022/04/04 06:47:39;;;;;;;13.77;7.93;;;6.10;42.30;;;;;;5093192;28;20020;-78
2022/04/04 06:50:06;;;;;;;11.13;6.35;;;5.80;42.90;;;;;;5092875;28;20088;-76
2022/04/04 06:52:32;;;;;;;10.07;6.88;;;5.60;43.20;;;;;;5098733;28;20429;-77
2022/04/04 06:54:59;;;;;;;8.93;6.85;;;5.70;43.50;;;;;;5096710;28;20032;-78
2022/04/04 06:57:25;;;;;;;;;;;5.90;43.20;;;;;;5099291;28;20020;-80
2022/04/04 06:59:56;;;;;;;11.27;7.07;;;6.20;43.90;;;;;;5095438;28;20007;-79
2022/04/04 07:02:22;;;;;;;12.23;6.50;;;6.40;42.40;;;;;;5075364;28;20417;-77
2022/04/04 07:04:49;;;;;;;11.75;6.68;;;6.60;41.60;;;;;;5093753;28;20066;-82
2022/04/04 07:07:17;;;;;;;11.57;6.20;;;6.80;41.30;;;;;;5093588;28;20454;-81
2022/04/04 07:09:44;;;;;;;9.00;6.63;;;7.10;41.00;;;;;;5093493;28;20482;-84
2022/04/04 07:12:10;;;;;;;13.20;7.30;;;7.50;39.70;;;;;;5073375;28;20056;-82
2022/04/04 07:14:36;;;;;;;12.10;7.20;;;8.10;39.10;;;;;;5092739;28;20123;-82
2022/04/04 07:17:02;;;;;;;8.43;6.65;;;8.80;38.60;;;;;;5074330;28;20054;-82
2022/04/04 07:19:33;;;;;;;9.80;6.47;;;9.70;37.60;;;;;;5092856;28;20466;-82
2022/04/04 07:22:02;;;;;;;7.95;5.05;;;10.10;36.00;;;;;;5092719;28;20422;-83
2022/04/04 07:24:28;;;;;;;8.57;5.78;;;10.40;34.20;;;;;;5092708;28;20595;-82
2022/04/04 07:26:54;;;;;;;7.10;4.65;;;10.50;34.60;;;;;;5072907;28;20397;-83
2022/04/04 07:29:20;;;;;;;6.72;6.00;;;10.70;33.80;;;;;;5091543;28;20093;-84
2022/04/04 07:31:46;;;;;;;9.93;5.05;;;11.10;34.10;;;;;;5092154;28;20587;-82
2022/04/04 07:34:12;;;;;;;7.00;4.80;;;11.60;32.80;;;;;;5092482;28;20063;-82
2022/04/04 07:36:41;;;;;;;7.80;5.30;;;12.30;32.50;;;;;;5092969;28;20020;-82
2022/04/04 07:39:08;;;;;;;8.90;5.10;;;13.10;30.90;;;;;;5093185;28;20024;-82
2022/04/04 07:41:34;;;;;;;9.85;6.10;;;13.10;30.50;;;;;;5093756;28;20154;-81
2022/04/04 07:44:00;;;;;;;9.63;5.07;;;13.00;30.70;;;;;;5093911;28;20472;-82
2022/04/04 07:46:26;;;;;;;10.30;5.32;;;12.90;30.60;;;;;;5091509;28;20047;-82
2022/04/04 07:48:55;;;;;;;7.45;5.65;;;13.10;30.80;;;;;;5092425;28;20020;-84
2022/04/04 07:51:21;;;;;;;6.47;3.78;;;13.10;30.20;;;;;;5092328;28;20101;-81
2022/04/04 07:53:47;;;;;;;7.10;4.10;;;13.10;30.00;;;;;;5074595;28;20040;-82
2022/04/04 07:56:13;;;;;;;12.27;9.07;;;13.10;30.00;;;;;;5092226;28;20517;-83
2022/04/04 07:58:39;;;;;;;17.25;12.20;;;13.40;29.80;;;;;;5092154;28;20100;-83
2022/04/04 08:01:05;;;;;;;10.60;4.80;;;13.50;29.80;;;;;;5092032;28;20032;-82
2022/04/04 08:03:31;;;;;;;7.43;4.75;;;13.20;29.70;;;;;;5073007;28;20495;-82
2022/04/04 08:05:57;;;;;;;7.53;4.80;;;13.20;30.00;;;;;;5073876;28;20063;-83
2022/04/04 08:08:24;;;;;;;6.95;4.82;;;13.30;29.20;;;;;;5092016;28;20048;-82
2022/04/04 08:10:50;;;;;;;6.53;4.97;;;13.30;29.00;;;;;;5094599;28;20028;-82
2022/04/04 08:13:16;;;;;;;9.90;5.38;;;13.30;29.50;;;;;;5095928;28;20055;-82
2022/04/04 08:15:42;;;;;;;9.80;4.93;;;13.40;29.20;;;;;;5096521;28;20028;-82
2022/04/04 08:18:08;;;;;;;7.78;5.07;;;13.70;29.20;;;;;;5097566;28;20035;-84
2022/04/04 08:20:34;;;;;;;7.45;4.80;;;14.20;28.90;;;;;;5095515;28;20028;-82
2022/04/04 08:23:00;;;;;;;7.10;3.88;;;14.70;28.00;;;;;;5096446;28;20035;-82
2022/04/04 08:25:26;;;;;;;10.95;4.97;;;14.50;28.30;;;;;;5098108;28;20051;-83
2022/04/04 08:27:52;;;;;;;20.55;13.35;;;15.00;27.90;;;;;;5100547;28;20031;-80
2022/04/04 08:30:18;;;;;;;6.53;4.30;;;15.20;27.70;;;;;;5102432;28;20077;-82
2022/04/04 08:32:44;;;;;;;7.20;4.80;;;15.40;27.20;;;;;;5097742;28;20127;-83
2022/04/04 08:35:13;;;;;;;7.63;4.32;;;15.10;27.30;;;;;;5096789;28;20031;-84
2022/04/04 08:37:41;;;;;;;7.00;4.65;;;15.20;27.70;;;;;;5076710;28;20056;-84
2022/04/04 08:40:09;;;;;;;6.65;4.43;;;15.10;27.40;;;;;;5076483;28;20480;-83
2022/04/04 08:42:36;;;;;;;6.75;4.50;;;14.80;27.40;;;;;;5083948;28;20065;-82
2022/04/04 08:45:05;;;;;;;6.30;4.53;;;14.60;27.70;;;;;;5096135;28;20524;-81
2022/04/04 08:47:32;;;;;;;35.85;23.40;;;14.80;28.10;;;;;;5095499;28;20061;-82
2022/04/04 08:49:58;;;;;;;6.75;5.18;;;15.40;27.80;;;;;;5095655;28;20020;-83
2022/04/04 08:52:25;;;;;;;8.93;4.80;;;15.90;27.50;;;;;;5096295;28;20047;-83
2022/04/04 08:54:51;;;;;;;5.90;4.72;;;16.20;27.20;;;;;;5095179;28;20028;-83
2022/04/04 08:57:18;;;;;;;6.05;4.70;;;16.40;27.00;;;;;;5087271;28;20025;-83
2022/04/04 08:59:44;;;;;;;8.18;4.75;;;16.60;27.40;;;;;;5075389;28;20111;-84
2022/04/04 09:02:11;;;;;;;6.07;4.22;;;17.30;27.00;;;;;;5076052;28;20106;-83
2022/04/04 09:04:38;;;;;;;8.63;4.68;;;17.90;27.10;;;;;;5079721;28;20036;-80
2022/04/04 09:07:09;;;;;;;8.77;4.57;;;18.50;26.40;;;;;;5080851;28;20056;-84
2022/04/04 09:09:41;;;;;;;6.63;4.65;;;18.60;25.50;;;;;;5078103;28;20152;-82
2022/04/04 09:12:10;;;;;;;7.03;4.70;;;18.40;26.30;;;;;;5058545;28;20048;-85
2022/04/04 09:14:56;;;;;;;6.32;3.80;;;18.50;26.10;;;;;;5095056;28;20028;-83
2022/04/04 09:17:33;;;;;;;4.05;3.17;;;19.10;25.50;;;;;;5095267;28;20030;-82
2022/04/04 09:20:08;;;;;;;4.32;3.65;;;19.30;25.10;;;;;;5094966;28;20027;-82
2022/04/04 09:22:33;;;;;;;5.70;4.00;;;18.70;25.00;;;;;;5093791;28;20113;-83
2022/04/04 09:25:02;;;;;;;6.97;3.13;;;18.00;25.20;;;;;;5094798;28;20060;-82
2022/04/04 09:27:36;;;;;;;4.20;3.10;;;17.40;25.40;;;;;;5093784;28;20105;-83
2022/04/04 09:30:07;;;;;;;3.92;3.15;;;16.90;26.20;;;;;;5094543;28;20055;-82
2022/04/04 09:32:37;;;;;;;5.32;2.95;;;17.10;26.00;;;;;;5076247;28;20016;-82
2022/04/04 09:35:13;;;;;;;3.30;2.42;;;17.30;25.70;;;;;;5095032;28;20099;-84
2022/04/04 09:37:41;;;;;;;5.15;2.53;;;17.40;25.70;;;;;;5094913;28;20484;-83
2022/04/04 09:40:14;;;;;;;3.78;2.00;;;17.20;26.40;;;;;;5078067;28;20032;-82
2022/04/04 09:42:40;;;;;;;3.38;2.22;;;17.70;26.10;;;;;;5095231;28;20052;-82
2022/04/04 09:45:11;;;;;;;4.40;2.55;;;17.80;25.60;;;;;;5075920;28;20037;-83
2022/04/04 09:47:48;;;;;;;2.90;2.50;;;17.70;26.10;;;;;;5057005;28;20055;-83
2022/04/04 09:50:33;;;;;;;3.28;2.35;;;18.00;25.70;;;;;;5094372;28;20027;-82
2022/04/04 09:53:00;;;;;;;5.03;2.72;;;17.90;26.20;;;;;;5084054;28;20054;-82
2022/04/04 09:55:52;;;;;;;3.70;2.13;;;18.40;26.20;;;;;;5105706;28;20024;-83
2022/04/04 09:58:21;;;;;;;2.13;1.80;;;18.80;25.70;;;;;;5078412;28;20032;-84
2022/04/04 10:00:50;;;;;;;4.15;2.60;;;18.40;24.90;;;;;;5093891;28;20088;-84
2022/04/04 10:03:18;;;;;;;3.20;2.63;;;17.50;25.70;;;;;;5094380;28;20035;-83
2022/04/04 10:05:51;;;;;;;3.83;2.20;;;17.20;26.50;;;;;;5094502;28;20063;-82
2022/04/04 10:08:17;;;;;;;3.17;2.83;;;17.10;26.20;;;;;;5094213;28;20020;-82
2022/04/04 10:10:44;;;;;;;3.97;2.93;;;17.40;26.30;;;;;;5094173;28;20043;-82
2022/04/04 10:13:17;;;;;;;3.63;2.50;;;18.00;26.40;;;;;;5076321;28;20067;-83
2022/04/04 10:15:43;;;;;;;3.45;2.38;;;18.00;25.70;;;;;;5076487;28;20034;-82
2022/04/04 10:18:10;;;;;;;4.38;2.28;;;17.10;25.90;;;;;;5093748;28;20020;-81
2022/04/04 10:20:36;;;;;;;3.50;2.25;;;16.60;26.10;;;;;;5096079;28;20043;-85
2022/04/04 10:23:04;;;;;;;3.33;2.80;;;16.50;26.60;;;;;;5094310;28;20380;-83
2022/04/04 10:25:32;;;;;;;4.38;2.33;;;16.30;27.50;;;;;;5094205;28;20032;-83
2022/04/04 10:27:59;;;;;;;7.38;2.58;;;15.40;27.60;;;;;;5077072;28;20052;-84
2022/04/04 10:30:40;;;;;;;3.13;1.80;;;13.50;28.00;;;;;;5076833;28;20032;-84
2022/04/04 10:33:23;;;;;;;4.97;2.70;;;12.00;28.90;;;;;;5095046;28;20024;-85
2022/04/04 10:36:06;;;;;;;4.78;2.45;;;10.70;30.20;;;;;;5094128;28;20067;-82
2022/04/04 10:38:35;;;;;;;4.03;2.30;;;9.60;31.20;;;;;;5094257;28;20051;-82
2022/04/04 10:41:06;;;;;;;3.53;2.10;;;8.90;32.50;;;;;;5076608;28;20383;-82
2022/04/04 10:43:34;;;;;;;4.82;2.05;;;8.40;33.30;;;;;;5075433;28;20016;-83
2022/04/04 10:46:13;;;;;;;3.22;2.33;;;7.90;33.70;;;;;;5093420;28;20032;-84
2022/04/04 10:48:51;;;;;;;3.35;2.53;;;7.60;34.40;;;;;;5093441;28;20024;-82
2022/04/04 10:51:27;;;;;;;6.22;2.38;;;7.30;35.00;;;;;;5074256;28;20104;-84
2022/04/04 10:54:11;;;;;;;4.70;2.23;;;7.20;35.90;;;;;;5096721;28;20024;-85
2022/04/04 10:56:40;;;;;;;3.78;2.40;;;7.10;36.40;;;;;;5075012;28;20024;-81
2022/04/04 10:59:15;;;;;;;4.95;4.13;;;7.00;36.00;;;;;;5093014;28;20032;-81
2022/04/04 11:01:46;;;;;;;3.22;2.03;;;6.70;36.40;;;;;;5093109;28;20417;-82
2022/04/04 11:04:30;;;;;;;4.40;2.97;;;6.60;36.70;;;;;;5093463;28;20024;-83
2022/04/04 11:09:53;;;;;;;4.97;2.28;;;6.40;36.60;;;;;;5093796;28;20111;-81
2022/04/04 11:12:22;;;;;;;6.32;2.60;;;6.30;37.10;;;;;;5094637;28;20419;-82
2022/04/04 11:14:55;;;;;;;3.53;2.45;;;6.20;37.00;;;;;;5099451;28;20055;-84
2022/04/04 11:17:30;;;;;;;13.35;8.25;;;6.20;37.50;;;;;;5085877;28;20016;-80
2022/04/04 11:20:31;;;;;;;7.28;3.33;;;6.20;37.30;;;;;;5081070;28;20032;-81
2022/04/04 11:23:03;;;;;;;7.43;4.00;;;6.10;37.60;;;;;;5096858;28;20055;-82
2022/04/04 11:25:34;;;;;;;3.33;2.60;;;6.00;38.20;;;;;;5099068;28;20110;-82
2022/04/04 11:28:01;;;;;;;3.47;2.25;;;6.00;38.50;;;;;;5066107;28;20444;-80
2022/04/04 11:30:27;;;;;;;5.32;2.45;;;6.00;38.50;;;;;;5073476;28;20024;-84
2022/04/04 11:32:57;;;;;;;5.07;3.30;;;6.00;38.50;;;;;;5054847;28;20158;-81
2022/04/04 11:35:30;;;;;;;3.50;2.33;;;5.90;39.40;;;;;;5072882;28;20056;-82
2022/04/04 11:37:56;;;;;;;2.88;2.10;;;5.90;38.80;;;;;;5072853;28;20052;-84
2022/04/04 11:40:25;;;;;;;3.05;2.42;;;5.90;39.00;;;;;;5073134;28;20477;-82
2022/04/04 11:42:52;;;;;;;4.47;2.97;;;5.90;39.20;;;;;;5074192;28;20077;-83
2022/04/04 11:45:33;;;;;;;3.63;2.75;;;5.90;39.20;;;;;;5070437;28;20057;-82
2022/04/04 11:48:02;;;;;;;3.50;2.13;;;5.80;38.80;;;;;;5100329;28;20027;-82
2022/04/04 11:50:30;;;;;;;4.38;2.20;;;5.90;39.10;;;;;;5100316;28;20425;-81
2022/04/04 11:53:05;;;;;;;3.47;3.17;;;5.80;38.90;;;;;;5100152;28;20384;-82
2022/04/04 11:55:33;;;;;;;3.92;2.33;;;5.70;40.00;;;;;;5097796;28;20056;-82
2022/04/04 11:58:01;;;;;;;5.38;3.88;;;5.80;40.00;;;;;;5097484;28;20052;-81
2022/04/04 12:00:33;;;;;;;7.00;4.45;;;5.80;40.70;;;;;;5097366;28;20028;-84
2022/04/04 12:03:11;;;;;;;7.35;5.03;;;5.90;40.90;;;;;;5078228;28;20054;-82
2022/04/04 12:05:47;;;;;;;;;;;6.00;40.90;;;;;;5097213;28;20062;-84
2022/04/04 12:08:15;;;;;;;3.72;2.50;;;6.00;40.00;;;;;;5096990;28;19910;-83
2022/04/04 12:10:42;;;;;;;;;;;5.90;39.50;;;;;;5098318;28;20036;-82
2022/04/04 12:13:14;;;;;;;4.45;3.03;;;5.80;39.10;;;;;;5080779;28;19932;-83
2022/04/04 12:15:44;;;;;;;6.68;2.90;;;5.80;40.20;;;;;;5097169;28;20111;-81
2022/04/04 12:18:11;;;;;;;3.55;2.70;;;5.90;40.00;;;;;;5078847;28;20016;-82
2022/04/04 12:20:44;;;;;;;3.35;2.58;;;5.90;39.80;;;;;;5096503;28;20052;-82
2022/04/04 12:26:00;;;;;;;3.17;2.88;;;6.00;39.20;;;;;;5096013;28;20039;-85
2022/04/04 12:28:34;;;;;;;2.88;2.28;;;6.10;39.70;;;;;;5095887;28;20028;-81
2022/04/04 12:31:15;;;;;;;7.55;2.72;;;6.20;39.10;;;;;;5095781;28;20439;-82
2022/04/04 12:33:41;;;;;;;2.45;1.90;;;6.10;40.20;;;;;;5094769;28;20099;-82
2022/04/04 12:36:07;;;;;;;3.65;2.38;;;6.10;39.70;;;;;;5095711;28;20059;-81
2022/04/04 12:38:42;;;;;;;3.25;2.53;;;6.30;40.20;;;;;;5096207;28;20478;-83
2022/04/04 12:41:16;;;;;;;3.00;2.17;;;6.70;39.80;;;;;;5095619;28;20465;-83
2022/04/04 12:43:46;;;;;;;3.67;2.40;;;7.10;39.50;;;;;;5096005;28;20440;-82
2022/04/04 12:46:25;;;;;;;4.40;2.50;;;7.40;39.30;;;;;;5095618;28;20036;-81
2022/04/04 12:48:51;;;;;;;3.83;1.90;;;7.70;38.80;;;;;;5095505;28;20388;-81
2022/04/04 12:51:29;;;;;;;3.00;1.73;;;7.80;38.20;;;;;;5094604;28;20036;-83
2022/04/04 12:53:56;;;;;;;3.33;2.28;;;7.90;38.50;;;;;;5096371;28;20029;-82
2022/04/04 12:56:23;;;;;;;4.03;1.95;;;7.80;37.80;;;;;;5097445;28;20027;-81
2022/04/04 12:59:08;;;;;;;3.20;2.63;;;7.50;37.50;;;;;;5099908;28;20028;-83
2022/04/04 13:01:35;;;;;;;3.72;2.50;;;7.10;38.10;;;;;;5095257;28;20037;-84